sensor_id;sensor_type;location;lat;lon;timestamp;pressure;altitude;pressure_sealevel;temperature;humidity
48810;BME280;40070;47.322;18.784;2023-05-13T00:00:35;1006.33;;;12.63;82.81
48810;BME280;40070;47.322;18.784;2023-05-13T00:02:36;1006.35;;;12.59;82.90
48810;BME280;40070;47.322;18.784;2023-05-13T00:04:37;1006.32;;;12.64;82.30
48810;BME280;40070;47.322;18.784;2023-05-13T00:06:38;1006.30;;;12.70;82.16
48810;BME280;40070;47.322;18.784;2023-05-13T00:08:39;1006.31;;;12.56;81.43
48810;BME280;40070;47.322;18.784;2023-05-13T00:10:40;1006.30;;;12.63;81.27
48810;BME280;40070;47.322;18.784;2023-05-13T00:12:41;1006.32;;;12.63;80.94
48810;BME280;40070;47.322;18.784;2023-05-13T00:14:41;1006.29;;;12.63;81.43
48810;BME280;40070;47.322;18.784;2023-05-13T00:16:42;1006.27;;;12.44;81.54
48810;BME280;40070;47.322;18.784;2023-05-13T00:18:43;1006.27;;;12.41;81.83
48810;BME280;40070;47.322;18.784;2023-05-13T00:20:44;1006.32;;;12.48;81.20
48810;BME280;40070;47.322;18.784;2023-05-13T00:22:45;1006.26;;;12.47;82.41
48810;BME280;40070;47.322;18.784;2023-05-13T00:24:46;1006.24;;;12.63;81.36
48810;BME280;40070;47.322;18.784;2023-05-13T00:26:47;1006.25;;;12.41;82.22
48810;BME280;40070;47.322;18.784;2023-05-13T00:28:48;1006.24;;;12.51;81.93
48810;BME280;40070;47.322;18.784;2023-05-13T00:30:48;1006.25;;;12.37;82.31
48810;BME280;40070;47.322;18.784;2023-05-13T00:32:49;1006.27;;;12.45;82.55
48810;BME280;40070;47.322;18.784;2023-05-13T00:34:50;1006.29;;;12.56;81.55
48810;BME280;40070;47.322;18.784;2023-05-13T00:36:51;1006.31;;;12.57;82.01
48810;BME280;40070;47.322;18.784;2023-05-13T00:38:52;1006.28;;;12.38;82.75
48810;BME280;40070;47.322;18.784;2023-05-13T00:40:53;1006.30;;;12.53;82.34
48810;BME280;40070;47.322;18.784;2023-05-13T00:42:54;1006.29;;;12.58;81.63
48810;BME280;40070;47.322;18.784;2023-05-13T00:44:54;1006.33;;;12.31;82.53
48810;BME280;40070;47.322;18.784;2023-05-13T00:46:55;1006.34;;;12.38;81.90
48810;BME280;40070;47.322;18.784;2023-05-13T00:48:56;1006.37;;;12.58;80.96
48810;BME280;40070;47.322;18.784;2023-05-13T00:50:58;1006.38;;;12.29;81.69
48810;BME280;40070;47.322;18.784;2023-05-13T00:52:59;1006.39;;;12.26;82.62
48810;BME280;40070;47.322;18.784;2023-05-13T00:55:02;1006.39;;;12.31;82.48
48810;BME280;40070;47.322;18.784;2023-05-13T00:57:03;1006.36;;;12.35;81.81
48810;BME280;40070;47.322;18.784;2023-05-13T00:59:03;1006.36;;;12.40;82.58
48810;BME280;40070;47.322;18.784;2023-05-13T01:03:19;1006.39;;;12.55;80.83
48810;BME280;40070;47.322;18.784;2023-05-13T01:05:25;1006.41;;;12.35;81.63
48810;BME280;40070;47.322;18.784;2023-05-13T01:07:34;1006.44;;;12.46;81.54
48810;BME280;40070;47.322;18.784;2023-05-13T01:12:07;1006.46;;;12.46;81.25
48810;BME280;40070;47.322;18.784;2023-05-13T01:14:10;1006.49;;;12.38;81.44
48810;BME280;40070;47.322;18.784;2023-05-13T01:16:15;1006.49;;;12.53;80.85
48810;BME280;40070;47.322;18.784;2023-05-13T01:18:32;1006.52;;;12.47;81.59
48810;BME280;40070;47.322;18.784;2023-05-13T01:20:33;1006.50;;;12.45;81.35
48810;BME280;40070;47.322;18.784;2023-05-13T01:22:34;1006.49;;;12.71;80.54
48810;BME280;40070;47.322;18.784;2023-05-13T01:24:35;1006.48;;;12.81;80.09
48810;BME280;40070;47.322;18.784;2023-05-13T01:26:36;1006.53;;;12.70;79.96
48810;BME280;40070;47.322;18.784;2023-05-13T01:28:36;1006.50;;;12.59;80.41
48810;BME280;40070;47.322;18.784;2023-05-13T01:30:37;1006.49;;;12.55;80.90
48810;BME280;40070;47.322;18.784;2023-05-13T01:32:38;1006.46;;;12.52;80.97
48810;BME280;40070;47.322;18.784;2023-05-13T01:34:39;1006.47;;;12.48;80.78
48810;BME280;40070;47.322;18.784;2023-05-13T01:36:41;1006.51;;;12.53;80.57
48810;BME280;40070;47.322;18.784;2023-05-13T01:38:43;1006.47;;;12.40;81.24
48810;BME280;40070;47.322;18.784;2023-05-13T01:40:44;1006.47;;;12.33;81.40
48810;BME280;40070;47.322;18.784;2023-05-13T01:42:45;1006.50;;;12.50;80.55
48810;BME280;40070;47.322;18.784;2023-05-13T01:44:46;1006.48;;;12.46;80.68
48810;BME280;40070;47.322;18.784;2023-05-13T01:46:47;1006.44;;;12.53;80.33
48810;BME280;40070;47.322;18.784;2023-05-13T01:48:48;1006.47;;;12.33;81.28
48810;BME280;40070;47.322;18.784;2023-05-13T01:50:49;1006.50;;;12.21;81.58
48810;BME280;40070;47.322;18.784;2023-05-13T01:52:50;1006.47;;;12.57;80.54
48810;BME280;40070;47.322;18.784;2023-05-13T01:54:51;1006.46;;;12.56;80.29
48810;BME280;40070;47.322;18.784;2023-05-13T01:56:52;1006.51;;;12.36;80.63
48810;BME280;40070;47.322;18.784;2023-05-13T01:58:52;1006.50;;;12.50;80.01
48810;BME280;40070;47.322;18.784;2023-05-13T02:00:53;1006.51;;;12.40;80.86
48810;BME280;40070;47.322;18.784;2023-05-13T02:02:54;1006.51;;;12.38;80.55
48810;BME280;40070;47.322;18.784;2023-05-13T02:04:55;1006.57;;;12.06;82.11
48810;BME280;40070;47.322;18.784;2023-05-13T02:06:56;1006.50;;;12.13;82.14
48810;BME280;40070;47.322;18.784;2023-05-13T02:08:57;1006.54;;;12.19;82.13
48810;BME280;40070;47.322;18.784;2023-05-13T02:10:58;1006.53;;;12.46;81.42
48810;BME280;40070;47.322;18.784;2023-05-13T02:12:59;1006.51;;;12.52;80.67
48810;BME280;40070;47.322;18.784;2023-05-13T02:15:00;1006.56;;;12.15;81.66
48810;BME280;40070;47.322;18.784;2023-05-13T02:17:01;1006.57;;;12.18;81.97
48810;BME280;40070;47.322;18.784;2023-05-13T02:19:02;1006.56;;;12.16;82.05
48810;BME280;40070;47.322;18.784;2023-05-13T02:21:03;1006.53;;;12.27;82.04
48810;BME280;40070;47.322;18.784;2023-05-13T02:23:04;1006.55;;;12.24;81.95
48810;BME280;40070;47.322;18.784;2023-05-13T02:25:05;1006.58;;;12.52;81.05
48810;BME280;40070;47.322;18.784;2023-05-13T02:27:06;1006.58;;;12.46;80.78
48810;BME280;40070;47.322;18.784;2023-05-13T02:29:07;1006.64;;;12.43;80.48
48810;BME280;40070;47.322;18.784;2023-05-13T02:31:08;1006.66;;;12.20;81.66
48810;BME280;40070;47.322;18.784;2023-05-13T02:33:08;1006.65;;;12.54;80.20
48810;BME280;40070;47.322;18.784;2023-05-13T02:35:09;1006.67;;;12.44;80.92
48810;BME280;40070;47.322;18.784;2023-05-13T02:37:10;1006.70;;;12.24;81.61
48810;BME280;40070;47.322;18.784;2023-05-13T02:39:11;1006.69;;;12.42;80.74
48810;BME280;40070;47.322;18.784;2023-05-13T02:41:12;1006.72;;;12.25;81.03
48810;BME280;40070;47.322;18.784;2023-05-13T02:43:13;1006.68;;;12.25;81.19
48810;BME280;40070;47.322;18.784;2023-05-13T02:45:14;1006.72;;;12.31;81.02
48810;BME280;40070;47.322;18.784;2023-05-13T02:47:15;1006.70;;;12.14;82.07
48810;BME280;40070;47.322;18.784;2023-05-13T02:49:15;1006.70;;;12.19;81.49
48810;BME280;40070;47.322;18.784;2023-05-13T02:51:16;1006.70;;;12.16;81.60
48810;BME280;40070;47.322;18.784;2023-05-13T02:53:17;1006.69;;;11.91;82.76
48810;BME280;40070;47.322;18.784;2023-05-13T02:55:18;1006.73;;;12.18;82.31
48810;BME280;40070;47.322;18.784;2023-05-13T02:57:19;1006.73;;;12.25;82.05
48810;BME280;40070;47.322;18.784;2023-05-13T02:59:20;1006.72;;;12.31;81.13
48810;BME280;40070;47.322;18.784;2023-05-13T03:01:21;1006.71;;;12.18;81.74
48810;BME280;40070;47.322;18.784;2023-05-13T03:03:22;1006.71;;;12.06;82.36
48810;BME280;40070;47.322;18.784;2023-05-13T03:05:23;1006.71;;;11.99;82.64
48810;BME280;40070;47.322;18.784;2023-05-13T03:07:24;1006.74;;;12.13;81.69
48810;BME280;40070;47.322;18.784;2023-05-13T03:09:25;1006.76;;;12.16;81.28
48810;BME280;40070;47.322;18.784;2023-05-13T03:11:26;1006.73;;;12.07;81.13
48810;BME280;40070;47.322;18.784;2023-05-13T03:13:27;1006.77;;;11.96;82.17
48810;BME280;40070;47.322;18.784;2023-05-13T03:15:28;1006.79;;;11.97;82.56
48810;BME280;40070;47.322;18.784;2023-05-13T03:17:29;1006.78;;;12.03;81.43
48810;BME280;40070;47.322;18.784;2023-05-13T03:19:29;1006.78;;;11.93;82.25
48810;BME280;40070;47.322;18.784;2023-05-13T03:21:30;1006.76;;;11.96;82.22
48810;BME280;40070;47.322;18.784;2023-05-13T03:23:32;1006.76;;;12.04;81.99
48810;BME280;40070;47.322;18.784;2023-05-13T03:25:33;1006.74;;;11.93;81.89
48810;BME280;40070;47.322;18.784;2023-05-13T03:27:33;1006.81;;;12.14;81.38
48810;BME280;40070;47.322;18.784;2023-05-13T03:29:34;1006.80;;;11.89;80.76
48810;BME280;40070;47.322;18.784;2023-05-13T03:31:35;1006.83;;;11.95;81.51
48810;BME280;40070;47.322;18.784;2023-05-13T03:33:36;1006.84;;;12.02;81.19
48810;BME280;40070;47.322;18.784;2023-05-13T03:35:37;1006.84;;;11.96;81.13
48810;BME280;40070;47.322;18.784;2023-05-13T03:37:38;1006.85;;;11.84;82.14
48810;BME280;40070;47.322;18.784;2023-05-13T03:39:39;1006.86;;;11.86;82.70
48810;BME280;40070;47.322;18.784;2023-05-13T03:41:40;1006.85;;;12.05;81.82
48810;BME280;40070;47.322;18.784;2023-05-13T03:43:41;1006.90;;;11.94;81.77
48810;BME280;40070;47.322;18.784;2023-05-13T03:45:42;1006.89;;;12.01;81.85
48810;BME280;40070;47.322;18.784;2023-05-13T03:47:43;1006.90;;;11.98;82.04
48810;BME280;40070;47.322;18.784;2023-05-13T03:49:44;1006.89;;;11.88;81.49
48810;BME280;40070;47.322;18.784;2023-05-13T03:51:44;1006.93;;;12.05;81.55
48810;BME280;40070;47.322;18.784;2023-05-13T03:53:45;1006.93;;;12.29;80.33
48810;BME280;40070;47.322;18.784;2023-05-13T03:55:46;1006.97;;;12.13;80.58
48810;BME280;40070;47.322;18.784;2023-05-13T03:57:48;1006.97;;;11.92;81.10
48810;BME280;40070;47.322;18.784;2023-05-13T03:59:49;1006.98;;;11.94;81.25
48810;BME280;40070;47.322;18.784;2023-05-13T04:01:50;1007.03;;;11.99;80.87
48810;BME280;40070;47.322;18.784;2023-05-13T04:03:50;1007.02;;;12.05;80.47
48810;BME280;40070;47.322;18.784;2023-05-13T04:05:51;1007.03;;;12.16;80.36
48810;BME280;40070;47.322;18.784;2023-05-13T04:07:52;1007.02;;;12.04;80.31
48810;BME280;40070;47.322;18.784;2023-05-13T04:09:53;1006.99;;;12.05;80.04
48810;BME280;40070;47.322;18.784;2023-05-13T04:11:54;1007.06;;;12.30;79.14
48810;BME280;40070;47.322;18.784;2023-05-13T04:13:55;1007.06;;;11.90;80.17
48810;BME280;40070;47.322;18.784;2023-05-13T04:15:56;1007.07;;;12.02;80.17
48810;BME280;40070;47.322;18.784;2023-05-13T04:17:56;1007.10;;;11.78;81.31
48810;BME280;40070;47.322;18.784;2023-05-13T04:19:57;1007.07;;;12.00;80.64
48810;BME280;40070;47.322;18.784;2023-05-13T04:21:58;1007.09;;;12.18;79.55
48810;BME280;40070;47.322;18.784;2023-05-13T04:23:59;1007.12;;;12.02;79.75
48810;BME280;40070;47.322;18.784;2023-05-13T04:26:00;1007.14;;;11.96;79.77
48810;BME280;40070;47.322;18.784;2023-05-13T04:28:01;1007.11;;;11.94;80.23
48810;BME280;40070;47.322;18.784;2023-05-13T04:30:02;1007.14;;;11.64;81.13
48810;BME280;40070;47.322;18.784;2023-05-13T04:32:03;1007.21;;;11.57;81.75
48810;BME280;40070;47.322;18.784;2023-05-13T04:34:04;1007.24;;;11.85;81.17
48810;BME280;40070;47.322;18.784;2023-05-13T04:36:05;1007.26;;;11.81;80.78
48810;BME280;40070;47.322;18.784;2023-05-13T04:38:06;1007.21;;;11.76;80.68
48810;BME280;40070;47.322;18.784;2023-05-13T04:40:07;1007.31;;;11.64;81.38
48810;BME280;40070;47.322;18.784;2023-05-13T04:42:08;1007.31;;;11.91;80.83
48810;BME280;40070;47.322;18.784;2023-05-13T04:44:09;1007.32;;;12.03;80.22
48810;BME280;40070;47.322;18.784;2023-05-13T04:46:10;1007.31;;;11.96;80.08
48810;BME280;40070;47.322;18.784;2023-05-13T04:48:11;1007.32;;;11.90;80.49
48810;BME280;40070;47.322;18.784;2023-05-13T04:50:11;1007.28;;;12.13;79.47
48810;BME280;40070;47.322;18.784;2023-05-13T04:52:12;1007.33;;;12.09;78.87
48810;BME280;40070;47.322;18.784;2023-05-13T04:54:13;1007.36;;;11.88;80.15
48810;BME280;40070;47.322;18.784;2023-05-13T04:56:14;1007.31;;;12.01;79.90
48810;BME280;40070;47.322;18.784;2023-05-13T04:58:15;1007.34;;;12.01;79.76
48810;BME280;40070;47.322;18.784;2023-05-13T05:00:16;1007.37;;;11.79;81.25
48810;BME280;40070;47.322;18.784;2023-05-13T05:02:17;1007.37;;;12.07;80.31
48810;BME280;40070;47.322;18.784;2023-05-13T05:04:18;1007.41;;;11.85;80.52
48810;BME280;40070;47.322;18.784;2023-05-13T05:06:18;1007.46;;;11.92;80.44
48810;BME280;40070;47.322;18.784;2023-05-13T05:08:19;1007.49;;;11.85;81.32
48810;BME280;40070;47.322;18.784;2023-05-13T05:10:20;1007.52;;;12.09;80.45
48810;BME280;40070;47.322;18.784;2023-05-13T05:12:21;1007.47;;;12.35;79.06
48810;BME280;40070;47.322;18.784;2023-05-13T05:14:22;1007.44;;;12.31;78.81
48810;BME280;40070;47.322;18.784;2023-05-13T05:16:23;1007.44;;;11.96;80.14
48810;BME280;40070;47.322;18.784;2023-05-13T05:18:24;1007.42;;;12.14;79.32
48810;BME280;40070;47.322;18.784;2023-05-13T05:20:25;1007.44;;;12.00;79.84
48810;BME280;40070;47.322;18.784;2023-05-13T05:22:26;1007.47;;;12.07;79.20
48810;BME280;40070;47.322;18.784;2023-05-13T05:24:27;1007.42;;;12.08;79.44
48810;BME280;40070;47.322;18.784;2023-05-13T05:26:28;1007.48;;;12.16;79.18
48810;BME280;40070;47.322;18.784;2023-05-13T05:28:29;1007.48;;;12.22;78.53
48810;BME280;40070;47.322;18.784;2023-05-13T05:30:30;1007.50;;;12.15;79.24
48810;BME280;40070;47.322;18.784;2023-05-13T05:32:31;1007.47;;;12.17;79.34
48810;BME280;40070;47.322;18.784;2023-05-13T05:34:32;1007.51;;;12.04;79.50
48810;BME280;40070;47.322;18.784;2023-05-13T05:36:33;1007.52;;;11.91;79.99
48810;BME280;40070;47.322;18.784;2023-05-13T05:38:34;1007.52;;;12.04;79.83
48810;BME280;40070;47.322;18.784;2023-05-13T05:40:35;1007.49;;;12.15;78.80
48810;BME280;40070;47.322;18.784;2023-05-13T05:42:39;1007.50;;;12.08;79.27
48810;BME280;40070;47.322;18.784;2023-05-13T05:44:39;1007.49;;;12.16;79.41
48810;BME280;40070;47.322;18.784;2023-05-13T05:46:40;1007.48;;;11.98;79.56
48810;BME280;40070;47.322;18.784;2023-05-13T05:48:41;1007.49;;;11.96;80.30
48810;BME280;40070;47.322;18.784;2023-05-13T05:50:42;1007.48;;;12.10;80.10
48810;BME280;40070;47.322;18.784;2023-05-13T05:52:43;1007.47;;;12.17;80.12
48810;BME280;40070;47.322;18.784;2023-05-13T05:54:44;1007.51;;;12.49;79.23
48810;BME280;40070;47.322;18.784;2023-05-13T05:56:45;1007.57;;;12.66;78.23
48810;BME280;40070;47.322;18.784;2023-05-13T05:58:46;1007.55;;;12.65;77.96
48810;BME280;40070;47.322;18.784;2023-05-13T06:00:46;1007.52;;;12.54;77.82
48810;BME280;40070;47.322;18.784;2023-05-13T06:02:47;1007.57;;;12.52;78.79
48810;BME280;40070;47.322;18.784;2023-05-13T06:04:48;1007.57;;;12.51;78.48
48810;BME280;40070;47.322;18.784;2023-05-13T06:06:49;1007.61;;;12.63;78.29
48810;BME280;40070;47.322;18.784;2023-05-13T06:08:50;1007.63;;;12.69;78.41
48810;BME280;40070;47.322;18.784;2023-05-13T06:10:51;1007.63;;;12.69;78.02
48810;BME280;40070;47.322;18.784;2023-05-13T06:12:52;1007.64;;;12.51;78.88
48810;BME280;40070;47.322;18.784;2023-05-13T06:14:53;1007.66;;;12.67;79.04
48810;BME280;40070;47.322;18.784;2023-05-13T06:16:54;1007.65;;;12.57;78.23
48810;BME280;40070;47.322;18.784;2023-05-13T06:18:55;1007.66;;;12.53;77.51
48810;BME280;40070;47.322;18.784;2023-05-13T06:20:55;1007.66;;;12.48;78.24
48810;BME280;40070;47.322;18.784;2023-05-13T06:22:56;1007.71;;;12.50;78.73
48810;BME280;40070;47.322;18.784;2023-05-13T06:24:57;1007.69;;;12.63;77.37
48810;BME280;40070;47.322;18.784;2023-05-13T06:26:58;1007.72;;;12.56;78.00
48810;BME280;40070;47.322;18.784;2023-05-13T06:28:59;1007.74;;;12.49;77.82
48810;BME280;40070;47.322;18.784;2023-05-13T06:31:00;1007.76;;;12.76;77.54
48810;BME280;40070;47.322;18.784;2023-05-13T06:33:01;1007.76;;;12.74;76.27
48810;BME280;40070;47.322;18.784;2023-05-13T06:35:02;1007.79;;;12.81;76.57
48810;BME280;40070;47.322;18.784;2023-05-13T06:37:04;1007.75;;;12.66;76.60
48810;BME280;40070;47.322;18.784;2023-05-13T06:39:05;1007.73;;;12.73;76.92
48810;BME280;40070;47.322;18.784;2023-05-13T06:41:06;1007.76;;;12.82;77.20
48810;BME280;40070;47.322;18.784;2023-05-13T06:43:07;1007.71;;;12.51;76.50
48810;BME280;40070;47.322;18.784;2023-05-13T06:45:08;1007.73;;;12.51;77.03
48810;BME280;40070;47.322;18.784;2023-05-13T06:47:09;1007.68;;;12.91;77.53
48810;BME280;40070;47.322;18.784;2023-05-13T06:49:10;1007.73;;;12.96;76.57
48810;BME280;40070;47.322;18.784;2023-05-13T06:51:10;1007.77;;;13.17;76.31
48810;BME280;40070;47.322;18.784;2023-05-13T06:53:11;1007.79;;;12.95;76.44
48810;BME280;40070;47.322;18.784;2023-05-13T06:55:12;1007.81;;;12.94;76.21
48810;BME280;40070;47.322;18.784;2023-05-13T06:57:13;1007.79;;;12.96;75.93
48810;BME280;40070;47.322;18.784;2023-05-13T06:59:14;1007.77;;;12.89;76.05
48810;BME280;40070;47.322;18.784;2023-05-13T07:01:15;1007.79;;;12.91;75.49
48810;BME280;40070;47.322;18.784;2023-05-13T07:03:16;1007.74;;;12.96;75.68
48810;BME280;40070;47.322;18.784;2023-05-13T07:05:17;1007.71;;;13.00;75.36
48810;BME280;40070;47.322;18.784;2023-05-13T07:07:17;1007.73;;;13.31;74.35
48810;BME280;40070;47.322;18.784;2023-05-13T07:09:18;1007.66;;;13.38;74.82
48810;BME280;40070;47.322;18.784;2023-05-13T07:11:19;1007.68;;;13.35;74.57
48810;BME280;40070;47.322;18.784;2023-05-13T07:13:20;1007.73;;;13.45;74.30
48810;BME280;40070;47.322;18.784;2023-05-13T07:15:21;1007.74;;;13.57;74.14
48810;BME280;40070;47.322;18.784;2023-05-13T07:17:22;1007.76;;;13.62;73.82
48810;BME280;40070;47.322;18.784;2023-05-13T07:19:23;1007.76;;;13.53;72.57
48810;BME280;40070;47.322;18.784;2023-05-13T07:21:24;1007.78;;;13.67;72.57
48810;BME280;40070;47.322;18.784;2023-05-13T07:23:25;1007.80;;;13.70;72.91
48810;BME280;40070;47.322;18.784;2023-05-13T07:25:26;1007.78;;;13.91;72.96
48810;BME280;40070;47.322;18.784;2023-05-13T07:27:27;1007.77;;;13.82;72.42
48810;BME280;40070;47.322;18.784;2023-05-13T07:29:29;1007.83;;;13.89;73.20
48810;BME280;40070;47.322;18.784;2023-05-13T07:31:30;1007.84;;;13.82;72.47
48810;BME280;40070;47.322;18.784;2023-05-13T07:33:30;1007.84;;;13.80;72.82
48810;BME280;40070;47.322;18.784;2023-05-13T07:35:31;1007.89;;;13.78;70.88
48810;BME280;40070;47.322;18.784;2023-05-13T07:37:32;1007.86;;;13.41;71.52
48810;BME280;40070;47.322;18.784;2023-05-13T07:39:33;1007.87;;;13.43;72.73
48810;BME280;40070;47.322;18.784;2023-05-13T07:41:34;1007.92;;;13.44;73.34
48810;BME280;40070;47.322;18.784;2023-05-13T07:43:35;1007.81;;;13.54;73.09
48810;BME280;40070;47.322;18.784;2023-05-13T07:45:36;1007.82;;;13.55;72.74
48810;BME280;40070;47.322;18.784;2023-05-13T07:47:37;1007.81;;;13.70;72.92
48810;BME280;40070;47.322;18.784;2023-05-13T07:49:38;1007.84;;;13.78;72.74
48810;BME280;40070;47.322;18.784;2023-05-13T07:51:39;1007.86;;;13.88;72.15
48810;BME280;40070;47.322;18.784;2023-05-13T07:53:40;1007.87;;;13.93;71.11
48810;BME280;40070;47.322;18.784;2023-05-13T07:55:41;1007.86;;;13.83;71.85
48810;BME280;40070;47.322;18.784;2023-05-13T07:57:42;1007.89;;;13.86;71.75
48810;BME280;40070;47.322;18.784;2023-05-13T07:59:43;1007.94;;;13.96;71.48
48810;BME280;40070;47.322;18.784;2023-05-13T08:01:44;1007.92;;;13.83;71.25
48810;BME280;40070;47.322;18.784;2023-05-13T08:03:45;1007.91;;;14.02;71.86
48810;BME280;40070;47.322;18.784;2023-05-13T08:05:46;1008.02;;;13.83;70.88
48810;BME280;40070;47.322;18.784;2023-05-13T08:07:46;1008.03;;;13.49;71.17
48810;BME280;40070;47.322;18.784;2023-05-13T08:09:47;1008.06;;;13.82;71.13
48810;BME280;40070;47.322;18.784;2023-05-13T08:11:48;1008.04;;;13.92;71.74
48810;BME280;40070;47.322;18.784;2023-05-13T08:13:49;1008.04;;;13.97;71.19
48810;BME280;40070;47.322;18.784;2023-05-13T08:15:50;1008.14;;;13.77;70.36
48810;BME280;40070;47.322;18.784;2023-05-13T08:17:51;1008.15;;;13.77;70.27
48810;BME280;40070;47.322;18.784;2023-05-13T08:19:52;1008.16;;;13.99;70.01
48810;BME280;40070;47.322;18.784;2023-05-13T08:21:52;1008.15;;;13.94;70.85
48810;BME280;40070;47.322;18.784;2023-05-13T08:23:53;1008.18;;;14.14;71.47
48810;BME280;40070;47.322;18.784;2023-05-13T08:25:54;1008.21;;;14.13;71.55
48810;BME280;40070;47.322;18.784;2023-05-13T08:27:55;1008.20;;;13.94;70.52
48810;BME280;40070;47.322;18.784;2023-05-13T08:29:56;1008.20;;;14.20;69.83
48810;BME280;40070;47.322;18.784;2023-05-13T08:31:57;1008.23;;;14.18;68.80
48810;BME280;40070;47.322;18.784;2023-05-13T08:33:58;1008.18;;;14.09;69.50
48810;BME280;40070;47.322;18.784;2023-05-13T08:35:59;1008.20;;;14.09;69.17
48810;BME280;40070;47.322;18.784;2023-05-13T08:38:00;1008.24;;;14.21;68.23
48810;BME280;40070;47.322;18.784;2023-05-13T08:40:01;1008.23;;;14.27;68.29
48810;BME280;40070;47.322;18.784;2023-05-13T08:42:02;1008.24;;;14.33;68.74
48810;BME280;40070;47.322;18.784;2023-05-13T08:44:03;1008.25;;;14.46;69.14
48810;BME280;40070;47.322;18.784;2023-05-13T08:46:05;1008.26;;;14.35;69.28
48810;BME280;40070;47.322;18.784;2023-05-13T08:48:08;1008.26;;;14.51;67.38
48810;BME280;40070;47.322;18.784;2023-05-13T08:50:10;1008.23;;;14.61;67.21
48810;BME280;40070;47.322;18.784;2023-05-13T08:52:11;1008.22;;;14.38;67.10
48810;BME280;40070;47.322;18.784;2023-05-13T08:54:12;1008.23;;;14.24;67.03
48810;BME280;40070;47.322;18.784;2023-05-13T08:56:13;1008.13;;;14.55;65.97
48810;BME280;40070;47.322;18.784;2023-05-13T08:58:14;1008.19;;;14.69;66.17
48810;BME280;40070;47.322;18.784;2023-05-13T09:00:15;1008.16;;;14.55;67.73
48810;BME280;40070;47.322;18.784;2023-05-13T09:02:16;1008.17;;;14.62;69.27
48810;BME280;40070;47.322;18.784;2023-05-13T09:04:17;1008.19;;;14.42;68.09
48810;BME280;40070;47.322;18.784;2023-05-13T09:06:18;1008.20;;;14.74;68.70
48810;BME280;40070;47.322;18.784;2023-05-13T09:08:19;1008.22;;;14.81;67.17
48810;BME280;40070;47.322;18.784;2023-05-13T09:10:20;1008.21;;;14.70;66.59
48810;BME280;40070;47.322;18.784;2023-05-13T09:12:40;1008.23;;;14.54;67.72
48810;BME280;40070;47.322;18.784;2023-05-13T09:14:41;1008.25;;;14.44;69.59
48810;BME280;40070;47.322;18.784;2023-05-13T09:16:42;1008.16;;;14.67;68.69
48810;BME280;40070;47.322;18.784;2023-05-13T09:18:43;1008.16;;;14.83;66.59
48810;BME280;40070;47.322;18.784;2023-05-13T09:20:44;1008.14;;;14.78;66.39
48810;BME280;40070;47.322;18.784;2023-05-13T09:22:48;1008.17;;;14.68;65.47
48810;BME280;40070;47.322;18.784;2023-05-13T09:24:52;1008.21;;;14.73;65.72
48810;BME280;40070;47.322;18.784;2023-05-13T09:26:53;1008.25;;;14.77;66.40
48810;BME280;40070;47.322;18.784;2023-05-13T09:29:13;1008.23;;;14.94;65.92
48810;BME280;40070;47.322;18.784;2023-05-13T09:31:18;1008.27;;;14.80;65.93
48810;BME280;40070;47.322;18.784;2023-05-13T09:33:28;1008.22;;;14.73;65.91
48810;BME280;40070;47.322;18.784;2023-05-13T09:35:32;1008.27;;;14.52;66.14
48810;BME280;40070;47.322;18.784;2023-05-13T09:37:33;1008.23;;;14.50;66.28
48810;BME280;40070;47.322;18.784;2023-05-13T09:39:39;1008.21;;;14.35;66.57
48810;BME280;40070;47.322;18.784;2023-05-13T09:41:40;1008.23;;;14.40;66.86
48810;BME280;40070;47.322;18.784;2023-05-13T09:43:41;1008.23;;;14.51;65.39
48810;BME280;40070;47.322;18.784;2023-05-13T09:45:42;1008.28;;;14.43;67.09
48810;BME280;40070;47.322;18.784;2023-05-13T09:47:43;1008.30;;;14.46;67.59
48810;BME280;40070;47.322;18.784;2023-05-13T09:49:44;1008.19;;;14.58;67.20
48810;BME280;40070;47.322;18.784;2023-05-13T09:51:52;1008.24;;;14.72;66.50
48810;BME280;40070;47.322;18.784;2023-05-13T09:53:53;1008.27;;;14.66;66.66
48810;BME280;40070;47.322;18.784;2023-05-13T09:55:55;1008.25;;;14.43;66.48
48810;BME280;40070;47.322;18.784;2023-05-13T09:57:56;1008.23;;;14.53;66.33
48810;BME280;40070;47.322;18.784;2023-05-13T09:59:57;1008.25;;;14.61;66.50
48810;BME280;40070;47.322;18.784;2023-05-13T10:01:59;1008.26;;;14.59;67.15
48810;BME280;40070;47.322;18.784;2023-05-13T10:04:00;1008.25;;;14.59;67.77
48810;BME280;40070;47.322;18.784;2023-05-13T10:06:01;1008.26;;;14.52;66.70
48810;BME280;40070;47.322;18.784;2023-05-13T10:08:03;1008.23;;;14.60;67.00
48810;BME280;40070;47.322;18.784;2023-05-13T10:10:05;1008.27;;;14.60;67.49
48810;BME280;40070;47.322;18.784;2023-05-13T10:12:07;1008.32;;;14.59;68.84
48810;BME280;40070;47.322;18.784;2023-05-13T10:14:10;1008.37;;;14.54;68.80
48810;BME280;40070;47.322;18.784;2023-05-13T10:16:11;1008.28;;;14.67;67.59
48810;BME280;40070;47.322;18.784;2023-05-13T10:18:12;1008.31;;;14.74;68.16
48810;BME280;40070;47.322;18.784;2023-05-13T10:20:13;1008.26;;;14.82;67.62
48810;BME280;40070;47.322;18.784;2023-05-13T10:22:15;1008.26;;;14.93;68.16
48810;BME280;40070;47.322;18.784;2023-05-13T10:24:16;1008.24;;;15.04;68.92
48810;BME280;40070;47.322;18.784;2023-05-13T10:26:19;1008.22;;;14.93;68.48
48810;BME280;40070;47.322;18.784;2023-05-13T10:28:20;1008.28;;;14.94;68.62
48810;BME280;40070;47.322;18.784;2023-05-13T10:30:21;1008.28;;;15.01;68.65
48810;BME280;40070;47.322;18.784;2023-05-13T10:32:25;1008.28;;;15.07;66.70
48810;BME280;40070;47.322;18.784;2023-05-13T10:34:26;1008.29;;;14.94;67.62
48810;BME280;40070;47.322;18.784;2023-05-13T10:36:33;1008.27;;;14.75;67.99
48810;BME280;40070;47.322;18.784;2023-05-13T10:41:06;1008.27;;;14.85;67.49
48810;BME280;40070;47.322;18.784;2023-05-13T10:43:18;1008.23;;;14.86;66.85
48810;BME280;40070;47.322;18.784;2023-05-13T10:45:20;1008.26;;;14.76;67.30
48810;BME280;40070;47.322;18.784;2023-05-13T10:47:25;1008.28;;;14.65;67.41
48810;BME280;40070;47.322;18.784;2023-05-13T10:49:31;1008.24;;;14.73;67.13